Time;durP1;ratioP1;P1;durP2;ratioP2;P2;SDS_P1;SDS_P2;PMS_P1;PMS_P2;Temp;Humidity;BMP_temperature;BMP_pressure;BME280_temperature;BME280_humidity;BME280_pressure;Samples;Min_cycle;Max_cycle;Signal;HPM_P1;HPM_P2
2022/02/18 00:00:45;;;;;;;9.57;3.67;;;28.80;99.90;;;;;;5073540;28;20020;-74
2022/02/18 00:03:15;;;;;;;7.50;3.08;;;28.90;99.90;;;;;;5073631;28;20450;-75
2022/02/18 00:05:44;;;;;;;9.82;3.60;;;28.80;99.90;;;;;;5072008;28;20073;-74
2022/02/18 00:08:11;;;;;;;7.07;3.05;;;29.00;99.90;;;;;;5073515;28;20065;-74
2022/02/18 00:10:39;;;;;;;7.05;3.10;;;28.80;99.90;;;;;;5072255;28;20032;-74
2022/02/18 00:13:07;;;;;;;10.27;3.55;;;28.80;99.90;;;;;;5073378;28;20489;-73
2022/02/18 00:15:34;;;;;;;9.85;3.20;;;29.00;99.90;;;;;;5072021;28;20505;-74
2022/02/18 00:18:02;;;;;;;10.68;3.75;;;29.00;99.90;;;;;;5073499;28;20028;-75
2022/02/18 00:20:32;;;;;;;8.45;3.15;;;28.80;99.90;;;;;;5072036;28;20025;-74
2022/02/18 00:23:07;;;;;;;7.53;2.92;;;28.80;99.90;;;;;;5072151;28;20033;-73
2022/02/18 00:25:35;;;;;;;9.65;3.47;;;29.10;99.90;;;;;;5071774;28;20044;-74
2022/02/18 00:28:03;;;;;;;7.78;3.70;;;29.30;99.90;;;;;;5073310;28;20040;-74
2022/02/18 00:30:31;;;;;;;8.80;3.50;;;29.60;99.90;;;;;;5072148;28;20363;-75
2022/02/18 00:32:59;;;;;;;7.53;3.70;;;29.80;99.90;;;;;;5072090;28;20040;-74
2022/02/18 00:35:26;;;;;;;7.75;3.22;;;29.90;99.90;;;;;;5073293;28;20063;-74
2022/02/18 00:37:55;;;;;;;7.70;3.13;;;29.90;99.90;;;;;;5071815;28;20024;-74
2022/02/18 00:40:24;;;;;;;9.05;3.47;;;30.00;99.90;;;;;;5072046;28;20025;-75
2022/02/18 00:42:52;;;;;;;6.55;3.00;;;30.00;99.90;;;;;;5072265;28;20435;-75
2022/02/18 00:45:19;;;;;;;9.02;3.20;;;30.30;99.90;;;;;;5073078;28;20067;-75
2022/02/18 00:47:47;;;;;;;10.02;3.60;;;30.60;99.90;;;;;;5073022;28;20051;-76
2022/02/18 00:50:14;;;;;;;14.85;3.92;;;30.70;99.90;;;;;;5071800;28;20024;-76
2022/02/18 00:52:41;;;;;;;13.73;4.03;;;30.80;99.90;;;;;;5071870;28;20039;-76
2022/02/18 00:55:10;;;;;;;10.63;4.00;;;30.80;99.90;;;;;;5073226;28;20024;-77
2022/02/18 00:57:37;;;;;;;11.85;3.95;;;30.40;99.90;;;;;;5073045;28;20031;-77
2022/02/18 01:00:08;;;;;;;13.07;3.78;;;30.50;99.90;;;;;;5071761;28;20043;-79
2022/02/18 01:02:36;;;;;;;14.82;4.15;;;30.50;99.90;;;;;;5072969;28;20031;-77
2022/02/18 01:05:04;;;;;;;11.38;4.13;;;30.60;99.90;;;;;;5073074;28;20021;-76
2022/02/18 01:07:32;;;;;;;10.93;3.25;;;30.70;99.90;;;;;;5073055;28;20020;-78
2022/02/18 01:09:59;;;;;;;11.20;3.72;;;30.50;99.90;;;;;;5072906;28;20048;-77
2022/02/18 01:12:27;;;;;;;11.57;3.30;;;30.40;99.90;;;;;;5071573;28;20150;-76
2022/02/18 01:14:54;;;;;;;14.38;4.15;;;30.30;99.90;;;;;;5072814;28;20514;-77
2022/02/18 01:17:21;;;;;;;12.13;3.45;;;30.30;99.90;;;;;;5071555;28;20111;-77
2022/02/18 01:19:49;;;;;;;11.57;3.50;;;30.30;99.90;;;;;;5072887;28;20017;-76
2022/02/18 01:22:16;;;;;;;10.85;3.85;;;30.70;99.90;;;;;;5072825;28;20052;-76
2022/02/18 01:24:46;;;;;;;9.43;3.72;;;30.70;99.90;;;;;;5072750;28;20048;-76
2022/02/18 01:27:13;;;;;;;;;;;31.00;99.90;;;;;;5071831;28;20396;-75
2022/02/18 01:29:40;;;;;;;12.82;4.30;;;31.00;99.90;;;;;;5072767;28;19966;-76
2022/02/18 01:32:13;;;;;;;11.10;3.58;;;30.80;99.90;;;;;;5072815;28;20047;-76
2022/02/18 01:34:41;;;;;;;9.93;3.40;;;30.70;99.90;;;;;;5072580;28;20021;-77
2022/02/18 01:37:09;;;;;;;10.10;3.75;;;30.60;99.90;;;;;;5071359;28;20033;-76
2022/02/18 01:39:37;;;;;;;14.13;4.30;;;30.60;99.90;;;;;;5071167;28;20448;-76
2022/02/18 01:42:04;;;;;;;10.07;3.45;;;30.50;99.90;;;;;;5071275;28;20029;-77
2022/02/18 01:44:40;;;;;;;10.63;3.50;;;30.50;99.90;;;;;;5071584;28;20362;-76
2022/02/18 01:47:12;;;;;;;12.20;3.50;;;30.40;99.90;;;;;;5071317;28;20474;-78
2022/02/18 01:49:39;;;;;;;11.25;4.32;;;30.60;99.90;;;;;;5072933;28;20027;-75
2022/02/18 01:52:08;;;;;;;11.50;3.65;;;30.80;99.90;;;;;;5075114;28;20039;-76
2022/02/18 01:54:35;;;;;;;7.97;3.22;;;30.80;99.90;;;;;;5076257;28;20021;-76
2022/02/18 01:57:03;;;;;;;12.80;3.63;;;30.90;99.90;;;;;;5076299;28;20021;-76
2022/02/18 01:59:30;;;;;;;11.30;3.90;;;31.00;99.90;;;;;;5074788;28;20028;-76
2022/02/18 02:02:04;;;;;;;12.57;3.30;;;30.80;99.90;;;;;;5076024;28;20027;-76
2022/02/18 02:04:33;;;;;;;9.73;2.97;;;31.00;99.90;;;;;;5075927;28;20029;-76
2022/02/18 02:07:06;;;;;;;10.25;3.00;;;30.90;99.90;;;;;;5076184;28;20384;-76
2022/02/18 02:09:37;;;;;;;11.05;3.00;;;31.00;99.90;;;;;;5074453;28;20112;-77
2022/02/18 02:12:05;;;;;;;10.93;3.35;;;30.80;99.90;;;;;;5076076;28;20024;-76
2022/02/18 02:14:33;;;;;;;14.60;4.35;;;30.80;99.90;;;;;;5075724;28;20048;-77
2022/02/18 02:17:01;;;;;;;7.93;3.25;;;30.90;99.90;;;;;;5074438;28;20547;-77
2022/02/18 02:19:30;;;;;;;8.30;2.97;;;31.10;99.90;;;;;;5075755;28;20424;-77
2022/02/18 02:21:58;;;;;;;10.48;3.88;;;31.00;99.90;;;;;;5074393;28;20481;-77
2022/02/18 02:24:25;;;;;;;11.63;3.72;;;31.00;99.90;;;;;;5074201;28;20106;-77
2022/02/18 02:26:52;;;;;;;10.15;3.35;;;31.00;99.90;;;;;;5074432;28;20115;-78
2022/02/18 02:29:20;;;;;;;10.77;4.03;;;30.80;99.90;;;;;;5075524;28;20017;-77
2022/02/18 02:31:47;;;;;;;11.00;2.83;;;31.10;99.90;;;;;;5074297;28;20017;-76
2022/02/18 02:34:15;;;;;;;12.43;3.80;;;31.30;99.90;;;;;;5075363;28;20029;-77
2022/02/18 02:36:43;;;;;;;8.05;3.42;;;;;;;;;;5075389;28;20032;-75
2022/02/18 02:39:13;;;;;;;9.75;3.22;;;;;;;;;;5075391;28;20371;-76
2022/02/18 02:41:40;;;;;;;11.75;3.45;;;31.80;99.90;;;;;;5074142;28;20025;-77
2022/02/18 02:44:08;;;;;;;10.15;3.22;;;;;;;;;;5075785;28;20056;-76
2022/02/18 02:46:38;;;;;;;12.23;3.30;;;;;;;;;;5075445;28;20055;-78
2022/02/18 02:49:06;;;;;;;12.55;3.97;;;;;;;;;;5075316;28;20070;-77
2022/02/18 02:51:33;;;;;;;9.18;3.20;;;;;;;;;;5075180;28;20013;-77
2022/02/18 02:54:01;;;;;;;10.85;3.10;;;;;;;;;;5075639;28;20082;-77
2022/02/18 02:56:30;;;;;;;9.98;3.17;;;31.30;99.90;;;;;;5075113;28;20078;-77
2022/02/18 02:58:58;;;;;;;9.50;2.95;;;31.70;99.90;;;;;;5074158;28;20052;-80
2022/02/18 03:01:25;;;;;;;9.90;3.40;;;31.60;99.90;;;;;;5073832;28;20035;-78
2022/02/18 03:03:53;;;;;;;10.10;3.25;;;;;;;;;;5075578;28;20108;-77
2022/02/18 03:06:21;;;;;;;9.43;3.20;;;;;;;;;;5074284;28;20107;-76
2022/02/18 03:08:51;;;;;;;10.00;3.28;;;;;;;;;;5074369;28;20020;-77
2022/02/18 03:11:21;;;;;;;10.75;3.30;;;;;;;;;;5074018;28;20048;-79
2022/02/18 03:13:51;;;;;;;8.75;2.92;;;;;;;;;;5075112;28;20422;-77
2022/02/18 03:16:19;;;;;;;15.10;3.78;;;;;;;;;;5073310;28;20032;-77
2022/02/18 03:18:48;;;;;;;10.45;3.30;;;;;;;;;;5074746;28;20044;-78
2022/02/18 03:21:17;;;;;;;8.50;3.15;;;;;;;;;;5074658;28;20095;-77
2022/02/18 03:23:48;;;;;;;10.82;3.20;;;;;;;;;;5074370;28;20046;-78
2022/02/18 03:26:20;;;;;;;11.77;3.78;;;;;;;;;;5073349;28;20029;-77
2022/02/18 03:28:47;;;;;;;11.98;3.60;;;;;;;;;;5073156;28;20020;-78
2022/02/18 03:31:15;;;;;;;12.40;3.25;;;;;;;;;;5074248;28;20499;-78
2022/02/18 03:33:46;;;;;;;11.23;3.80;;;;;;;;;;5074334;28;20065;-77
2022/02/18 03:36:13;;;;;;;9.98;3.60;;;;;;;;;;5074043;28;20432;-75
2022/02/18 03:38:42;;;;;;;9.75;3.13;;;;;;;;;;5074189;28;20104;-76
2022/02/18 03:41:10;;;;;;;11.55;3.47;;;;;;;;;;5074323;28;20024;-77
2022/02/18 03:43:38;;;;;;;9.95;3.25;;;;;;;;;;5072815;28;20052;-76
2022/02/18 03:46:05;;;;;;;10.40;3.17;;;31.40;99.90;;;;;;5072674;28;20052;-78
2022/02/18 03:48:32;;;;;;;8.18;3.20;;;31.30;99.90;;;;;;5073964;28;20100;-77
2022/02/18 03:51:00;;;;;;;9.68;2.83;;;31.70;99.90;;;;;;5072852;28;20492;-78
2022/02/18 03:53:27;;;;;;;11.18;3.40;;;31.70;99.90;;;;;;5074006;28;20031;-76
2022/02/18 03:55:55;;;;;;;13.35;3.42;;;31.60;99.90;;;;;;5072679;28;20409;-77
2022/02/18 03:58:22;;;;;;;8.20;3.08;;;31.80;99.90;;;;;;5073701;28;20028;-76
2022/02/18 04:00:50;;;;;;;10.07;3.30;;;32.00;99.90;;;;;;5073813;28;20099;-75
2022/02/18 04:03:17;;;;;;;8.35;2.72;;;31.90;99.90;;;;;;5072394;28;20027;-78
2022/02/18 04:05:44;;;;;;;7.93;2.42;;;32.10;99.90;;;;;;5073708;28;20078;-77
2022/02/18 04:08:12;;;;;;;9.43;2.55;;;31.80;99.90;;;;;;5072537;28;20116;-77
2022/02/18 04:10:39;;;;;;;7.55;2.30;;;31.90;99.90;;;;;;5073769;28;20104;-77
2022/02/18 04:13:06;;;;;;;6.78;2.42;;;31.90;99.90;;;;;;5073312;28;20074;-77
2022/02/18 04:15:34;;;;;;;11.45;3.15;;;32.10;99.90;;;;;;5072218;28;20059;-77
2022/02/18 04:18:01;;;;;;;9.07;2.75;;;32.10;99.90;;;;;;5073672;28;20025;-77
2022/02/18 04:20:29;;;;;;;10.82;3.08;;;31.90;99.90;;;;;;5072308;28;20123;-77
2022/02/18 04:22:56;;;;;;;7.03;2.75;;;32.00;99.90;;;;;;5071975;28;20056;-77
2022/02/18 04:25:24;;;;;;;13.48;3.70;;;32.00;99.90;;;;;;5073366;28;20490;-76
2022/02/18 04:27:56;;;;;;;11.15;2.60;;;31.80;99.90;;;;;;5073494;28;20100;-78
2022/02/18 04:30:24;;;;;;;7.85;2.47;;;31.80;99.90;;;;;;5072186;28;20020;-77
2022/02/18 04:32:52;;;;;;;8.32;2.80;;;31.80;99.90;;;;;;5073414;28;20021;-76
2022/02/18 04:35:20;;;;;;;8.15;2.90;;;31.80;99.90;;;;;;5073352;28;20021;-76
2022/02/18 04:37:47;;;;;;;11.05;3.47;;;31.90;99.90;;;;;;5073324;28;20025;-77
2022/02/18 04:40:16;;;;;;;11.38;3.17;;;31.90;99.90;;;;;;5073159;28;20107;-77
2022/02/18 04:42:44;;;;;;;8.70;2.67;;;31.90;99.90;;;;;;5073283;28;20394;-77
2022/02/18 04:45:12;;;;;;;7.85;2.45;;;31.80;99.90;;;;;;5073167;28;20024;-77
2022/02/18 04:47:39;;;;;;;10.75;2.95;;;31.80;99.90;;;;;;5071863;28;20489;-77
2022/02/18 04:50:07;;;;;;;7.28;2.45;;;31.70;99.90;;;;;;5071901;28;20436;-77
2022/02/18 04:52:34;;;;;;;9.30;2.72;;;31.50;99.90;;;;;;5071874;28;20508;-77
2022/02/18 04:55:06;;;;;;;7.38;3.03;;;30.90;99.90;;;;;;5071621;28;20089;-76
2022/02/18 04:57:34;;;;;;;9.35;2.90;;;30.70;99.90;;;;;;5071719;28;20031;-78
2022/02/18 05:00:01;;;;;;;7.15;3.05;;;30.50;99.90;;;;;;5073226;28;20385;-78
2022/02/18 05:02:29;;;;;;;7.63;2.83;;;30.10;99.90;;;;;;5071739;28;20028;-78
2022/02/18 05:04:56;;;;;;;11.88;3.58;;;30.50;99.90;;;;;;5071767;28;20028;-78
2022/02/18 05:07:23;;;;;;;10.73;3.13;;;30.60;99.90;;;;;;5073049;28;20050;-77
2022/02/18 05:09:51;;;;;;;10.30;2.67;;;31.00;99.90;;;;;;5071642;28;20017;-78
2022/02/18 05:12:18;;;;;;;7.72;2.60;;;31.00;99.90;;;;;;5073172;28;20040;-78
2022/02/18 05:14:45;;;;;;;8.35;3.20;;;31.10;99.90;;;;;;5071692;28;20119;-78
2022/02/18 05:17:12;;;;;;;8.20;2.60;;;30.90;99.90;;;;;;5073214;28;20096;-77
2022/02/18 05:19:40;;;;;;;11.32;2.63;;;30.50;99.90;;;;;;5072694;28;20377;-78
2022/02/18 05:22:07;;;;;;;8.55;2.83;;;30.50;99.90;;;;;;5073038;28;20020;-77
2022/02/18 05:24:34;;;;;;;8.73;2.17;;;;;;;;;;5073018;28;20203;-77
2022/02/18 05:27:02;;;;;;;9.07;2.70;;;31.30;99.90;;;;;;5076943;28;20394;-78
2022/02/18 05:29:29;;;;;;;8.55;2.90;;;31.50;99.90;;;;;;5076548;28;20390;-77
2022/02/18 05:31:57;;;;;;;8.82;3.20;;;31.70;99.90;;;;;;5076976;28;20023;-76
2022/02/18 05:34:24;;;;;;;8.35;2.65;;;31.70;99.90;;;;;;5075042;28;20029;-77
2022/02/18 05:36:51;;;;;;;7.35;2.38;;;31.90;99.90;;;;;;5076574;28;20104;-76
2022/02/18 05:39:18;;;;;;;6.82;2.58;;;31.80;99.90;;;;;;5075136;28;20082;-76
2022/02/18 05:41:46;;;;;;;5.78;2.25;;;31.70;99.90;;;;;;5076386;28;20028;-76
2022/02/18 05:44:13;;;;;;;9.48;3.10;;;31.50;99.90;;;;;;5076659;28;20059;-75
2022/02/18 05:46:40;;;;;;;6.15;2.30;;;31.30;99.90;;;;;;5076419;28;20055;-76
2022/02/18 05:49:08;;;;;;;9.98;3.42;;;31.50;99.90;;;;;;5076422;28;20527;-76
2022/02/18 05:51:36;;;;;;;7.50;2.70;;;31.00;99.90;;;;;;5076233;28;20071;-75
2022/02/18 05:54:04;;;;;;;9.50;2.63;;;30.90;99.90;;;;;;5074955;28;20029;-76
2022/02/18 05:56:31;;;;;;;11.55;2.97;;;30.70;99.90;;;;;;5076245;28;20440;-76
2022/02/18 05:58:59;;;;;;;8.30;3.08;;;30.50;99.90;;;;;;5076274;28;20020;-76
2022/02/18 06:01:26;;;;;;;7.90;2.47;;;30.10;99.90;;;;;;5074720;28;20020;-75
2022/02/18 06:03:53;;;;;;;7.93;3.00;;;30.00;99.90;;;;;;5076032;28;20024;-76
2022/02/18 06:06:21;;;;;;;8.07;2.70;;;30.00;99.90;;;;;;5076139;28;20381;-76
2022/02/18 06:08:48;;;;;;;6.70;2.60;;;30.00;99.90;;;;;;5075925;28;20112;-75
2022/02/18 06:11:15;;;;;;;11.13;2.63;;;29.60;99.90;;;;;;5074608;28;20112;-75
2022/02/18 06:13:43;;;;;;;9.80;2.63;;;29.70;99.90;;;;;;5074726;28;20035;-76
2022/02/18 06:16:10;;;;;;;6.75;2.30;;;30.10;99.90;;;;;;5075891;28;20032;-75
2022/02/18 06:18:37;;;;;;;8.52;2.65;;;30.10;99.90;;;;;;5074517;28;20028;-76
2022/02/18 06:21:05;;;;;;;6.32;2.47;;;30.40;99.90;;;;;;5074366;28;20032;-75
2022/02/18 06:23:32;;;;;;;5.80;2.30;;;30.60;99.90;;;;;;5075437;28;20405;-75
2022/02/18 06:25:59;;;;;;;7.43;2.22;;;30.40;99.90;;;;;;5074227;28;20024;-75
2022/02/18 06:28:27;;;;;;;8.20;3.03;;;30.50;99.90;;;;;;5075757;28;20024;-75
2022/02/18 06:30:54;;;;;;;9.35;2.67;;;30.70;99.90;;;;;;5074106;28;20027;-76
2022/02/18 06:33:21;;;;;;;10.43;2.58;;;30.50;99.90;;;;;;5075563;28;20111;-75
2022/02/18 06:35:49;;;;;;;7.50;3.03;;;30.60;99.90;;;;;;5074340;28;20059;-75
2022/02/18 06:38:16;;;;;;;10.15;2.13;;;30.60;99.90;;;;;;5075574;28;20482;-75
2022/02/18 06:40:43;;;;;;;8.75;2.38;;;30.50;99.90;;;;;;5073982;28;20528;-74
2022/02/18 06:43:11;;;;;;;8.65;2.17;;;30.70;99.90;;;;;;5074029;28;20031;-74
2022/02/18 06:45:38;;;;;;;7.55;2.17;;;30.80;99.90;;;;;;5073790;28;20080;-75
2022/02/18 06:48:07;;;;;;;8.68;2.53;;;31.40;99.90;;;;;;5073924;28;20477;-75
2022/02/18 06:50:35;;;;;;;5.90;2.15;;;31.10;99.90;;;;;;5075198;28;20103;-74
2022/02/18 06:53:05;;;;;;;6.80;2.58;;;30.90;99.90;;;;;;5075260;28;20486;-75
2022/02/18 06:55:32;;;;;;;8.95;3.00;;;30.20;99.90;;;;;;5075180;28;20021;-73
2022/02/18 06:58:01;;;;;;;10.25;2.72;;;29.60;99.90;;;;;;5073793;28;20039;-74
2022/02/18 07:00:29;;;;;;;6.75;2.28;;;29.10;99.90;;;;;;5075148;28;20020;-75
2022/02/18 07:02:56;;;;;;;10.70;2.50;;;28.70;99.90;;;;;;5074778;28;20032;-75
2022/02/18 07:05:24;;;;;;;12.52;3.08;;;28.50;99.90;;;;;;5073662;28;20115;-74
2022/02/18 07:07:51;;;;;;;8.15;2.55;;;28.40;99.90;;;;;;5074999;28;20027;-75
2022/02/18 07:10:18;;;;;;;9.45;2.75;;;28.80;99.90;;;;;;5073514;28;20021;-74
2022/02/18 07:12:46;;;;;;;8.07;2.50;;;28.80;99.90;;;;;;5074740;28;20086;-75
2022/02/18 07:15:13;;;;;;;7.43;2.80;;;28.50;99.90;;;;;;5074826;28;20055;-76
2022/02/18 07:17:41;;;;;;;9.15;2.75;;;28.20;99.90;;;;;;5073442;28;20120;-76
2022/02/18 07:20:10;;;;;;;9.18;3.08;;;27.90;99.90;;;;;;5074683;28;20052;-76
2022/02/18 07:22:41;;;;;;;16.55;3.67;;;27.60;99.90;;;;;;5073149;28;20025;-76
2022/02/18 07:25:08;;;;;;;11.35;3.85;;;27.50;99.90;;;;;;5074661;28;20124;-74
2022/02/18 07:27:36;;;;;;;10.07;3.30;;;27.30;99.90;;;;;;5074324;28;20032;-74
2022/02/18 07:30:05;;;;;;;14.60;3.47;;;27.40;99.90;;;;;;5074349;28;20106;-75
2022/02/18 07:32:32;;;;;;;12.15;2.97;;;27.10;99.90;;;;;;5074455;28;20020;-76
2022/02/18 07:35:00;;;;;;;10.40;3.15;;;27.20;99.90;;;;;;5073121;28;20020;-75
2022/02/18 07:37:27;;;;;;;8.93;3.00;;;27.30;99.90;;;;;;5072887;28;20051;-74
2022/02/18 07:39:54;;;;;;;6.93;2.50;;;27.30;99.90;;;;;;5072904;28;20028;-75
2022/02/18 07:42:21;;;;;;;9.77;3.53;;;27.10;99.90;;;;;;5073991;28;20020;-75
2022/02/18 07:44:49;;;;;;;13.35;3.47;;;27.00;99.90;;;;;;5074054;28;20028;-74
2022/02/18 07:47:16;;;;;;;13.82;4.22;;;26.90;99.90;;;;;;5073675;28;20382;-75
2022/02/18 07:49:44;;;;;;;13.27;3.53;;;26.80;99.90;;;;;;5073845;28;20044;-75
2022/02/18 07:52:12;;;;;;;12.50;3.53;;;26.70;99.90;;;;;;5072649;28;20017;-74
2022/02/18 07:54:39;;;;;;;11.52;3.78;;;26.60;99.90;;;;;;5073951;28;20025;-75
2022/02/18 07:57:06;;;;;;;13.60;3.53;;;26.50;99.90;;;;;;5072483;28;20064;-76
2022/02/18 07:59:34;;;;;;;10.68;4.10;;;26.50;99.90;;;;;;5072315;28;20115;-75
2022/02/18 08:02:01;;;;;;;16.73;3.67;;;26.50;99.90;;;;;;5073665;28;20027;-75
2022/02/18 08:04:29;;;;;;;11.13;3.60;;;26.50;99.90;;;;;;5073494;28;20029;-75
2022/02/18 08:06:56;;;;;;;12.35;4.10;;;26.40;99.90;;;;;;5073635;28;20029;-75
2022/02/18 08:09:23;;;;;;;15.27;4.20;;;26.30;99.90;;;;;;5072213;28;20029;-75
2022/02/18 08:11:51;;;;;;;10.45;3.70;;;26.30;99.90;;;;;;5073544;28;20416;-75
2022/02/18 08:14:18;;;;;;;14.52;4.13;;;26.30;99.90;;;;;;5073508;28;20362;-75
2022/02/18 08:16:45;;;;;;;14.65;4.10;;;26.30;99.90;;;;;;5073560;28;20104;-75
2022/02/18 08:19:13;;;;;;;11.93;4.22;;;26.20;99.90;;;;;;5072238;28;20443;-75
2022/02/18 08:21:40;;;;;;;11.82;4.40;;;26.10;99.90;;;;;;5073467;28;20390;-75
2022/02/18 08:24:07;;;;;;;11.25;3.83;;;26.10;99.90;;;;;;5073059;28;20138;-74
2022/02/18 08:26:35;;;;;;;14.07;3.50;;;26.10;99.90;;;;;;5073383;28;20040;-74
2022/02/18 08:29:02;;;;;;;10.82;3.63;;;26.00;99.90;;;;;;5071993;28;20116;-75
2022/02/18 08:31:29;;;;;;;11.98;3.95;;;25.90;99.90;;;;;;5073383;28;20097;-75
2022/02/18 08:33:57;;;;;;;12.70;3.70;;;25.90;99.90;;;;;;5073248;28;20136;-75
2022/02/18 08:36:24;;;;;;;12.23;3.65;;;25.90;99.90;;;;;;5072010;28;20024;-75
2022/02/18 08:38:52;;;;;;;10.82;4.30;;;25.80;99.90;;;;;;5071853;28;20070;-75
2022/02/18 08:41:19;;;;;;;13.30;4.03;;;25.80;99.90;;;;;;5073125;28;20075;-75
2022/02/18 08:43:47;;;;;;;13.30;4.25;;;25.80;99.90;;;;;;5072896;28;20023;-75
2022/02/18 08:46:14;;;;;;;11.32;3.78;;;25.90;99.90;;;;;;5073060;28;20097;-74
2022/02/18 08:48:41;;;;;;;12.65;4.07;;;25.80;99.90;;;;;;5073080;28;20016;-74
2022/02/18 08:51:09;;;;;;;11.98;3.97;;;25.60;99.90;;;;;;5073151;28;20389;-74
2022/02/18 08:53:38;;;;;;;12.80;4.10;;;25.40;99.90;;;;;;5071769;28;20028;-75
2022/02/18 08:56:06;;;;;;;15.38;3.88;;;25.10;99.90;;;;;;5073030;28;20060;-74
2022/02/18 08:58:33;;;;;;;12.18;4.20;;;25.00;99.90;;;;;;5073066;28;20108;-73
2022/02/18 09:01:01;;;;;;;14.52;4.05;;;24.90;99.90;;;;;;5072241;28;20025;-75
2022/02/18 09:03:29;;;;;;;11.32;3.33;;;24.80;99.90;;;;;;5072830;28;20032;-75
2022/02/18 09:05:57;;;;;;;12.40;4.00;;;24.70;99.90;;;;;;5072917;28;20017;-74
2022/02/18 09:08:24;;;;;;;12.88;3.92;;;24.70;99.90;;;;;;5072950;28;20093;-76
2022/02/18 09:10:53;;;;;;;18.10;4.68;;;24.70;99.90;;;;;;5073020;28;20500;-76
2022/02/18 09:13:26;;;;;;;13.70;4.53;;;24.60;99.90;;;;;;5072888;28;20033;-73
2022/02/18 09:15:54;;;;;;;12.43;3.40;;;24.60;99.90;;;;;;5071655;28;20044;-74
2022/02/18 09:18:22;;;;;;;11.68;3.53;;;24.60;99.90;;;;;;5073035;28;20029;-76
2022/02/18 09:20:49;;;;;;;12.18;3.42;;;24.50;99.90;;;;;;5072964;28;20104;-74
2022/02/18 09:23:17;;;;;;;12.40;3.72;;;24.60;99.90;;;;;;5072535;28;20383;-76
2022/02/18 09:25:44;;;;;;;13.57;3.72;;;24.50;99.90;;;;;;5071467;28;20542;-76
2022/02/18 09:28:12;;;;;;;10.98;3.92;;;24.50;99.90;;;;;;5072867;28;20107;-75
2022/02/18 09:30:46;;;;;;;15.90;4.22;;;24.50;99.90;;;;;;5072788;28;20020;-75
2022/02/18 09:33:15;;;;;;;13.60;4.88;;;24.50;99.90;;;;;;5071583;28;20033;-75
2022/02/18 09:35:43;;;;;;;14.00;4.82;;;24.50;99.90;;;;;;5072772;28;20021;-74
2022/02/18 09:38:13;;;;;;;14.27;5.00;;;24.50;99.90;;;;;;5072846;28;20401;-75
2022/02/18 09:40:41;;;;;;;10.93;4.85;;;24.40;99.90;;;;;;5071132;28;20393;-74
2022/02/18 09:43:09;;;;;;;13.45;5.03;;;24.40;99.90;;;;;;5071363;28;20029;-73
2022/02/18 09:45:36;;;;;;;10.38;5.18;;;24.40;99.90;;;;;;5072410;28;20016;-74
2022/02/18 09:48:04;;;;;;;11.73;5.25;;;24.30;99.90;;;;;;5072466;28;20043;-75
2022/02/18 09:50:32;;;;;;;17.63;5.85;;;24.20;99.90;;;;;;5071188;28;20021;-73
2022/02/18 09:52:59;;;;;;;13.00;5.60;;;24.20;99.90;;;;;;5072905;28;20028;-75
2022/02/18 09:55:26;;;;;;;11.68;5.60;;;24.10;99.90;;;;;;5072611;28;20052;-74
2022/02/18 09:57:54;;;;;;;10.73;5.00;;;24.10;99.90;;;;;;5071133;28;20032;-74
2022/02/18 10:00:22;;;;;;;14.05;5.50;;;24.20;99.90;;;;;;5071288;28;20032;-74
2022/02/18 10:02:50;;;;;;;10.93;4.72;;;24.20;99.90;;;;;;5070963;28;20067;-75
2022/02/18 10:05:18;;;;;;;11.30;4.53;;;24.20;99.90;;;;;;5071017;28;20025;-74
2022/02/18 10:08:18;;;;;;;13.95;5.15;;;24.30;99.90;;;;;;5072413;28;20125;-75
2022/02/18 10:11:08;;;;;;;12.05;5.10;;;24.20;99.90;;;;;;5073065;28;20508;-74
2022/02/18 10:13:37;;;;;;;12.32;5.18;;;24.20;99.90;;;;;;5075470;28;20037;-75
2022/02/18 10:16:10;;;;;;;14.10;6.00;;;24.20;99.90;;;;;;5075837;28;20081;-74
2022/02/18 10:18:59;;;;;;;9.77;5.30;;;24.20;99.90;;;;;;5075915;28;20061;-75
2022/02/18 10:21:29;;;;;;;16.88;5.70;;;24.20;99.90;;;;;;5075917;28;20028;-73
2022/02/18 10:24:14;;;;;;;18.35;5.80;;;24.20;99.90;;;;;;5075552;28;20068;-74
2022/02/18 10:26:46;;;;;;;20.20;6.65;;;24.00;99.90;;;;;;5074355;28;20115;-74
2022/02/18 10:29:22;;;;;;;20.40;6.15;;;24.00;99.90;;;;;;5075694;28;20029;-74
2022/02/18 10:32:15;;;;;;;23.50;6.80;;;24.00;99.90;;;;;;5074326;28;20055;-74
2022/02/18 10:35:01;;;;;;;26.67;6.50;;;23.90;99.90;;;;;;5075462;28;20082;-73
2022/02/18 10:37:30;;;;;;;24.80;6.80;;;23.90;99.90;;;;;;5074239;28;20111;-72
2022/02/18 10:40:11;;;;;;;18.85;5.88;;;23.80;99.90;;;;;;5075472;28;20486;-73
2022/02/18 10:42:40;;;;;;;21.08;6.22;;;23.70;99.90;;;;;;5075217;28;20020;-72
2022/02/18 10:45:16;;;;;;;20.42;5.85;;;23.70;99.90;;;;;;5075426;28;20023;-72
2022/02/18 10:47:44;;;;;;;22.33;6.22;;;23.70;99.90;;;;;;5074134;28;20025;-72
2022/02/18 10:50:19;;;;;;;21.90;6.35;;;23.60;99.90;;;;;;5075367;28;20024;-73
2022/02/18 10:53:09;;;;;;;18.60;6.22;;;23.60;99.90;;;;;;5075295;28;20013;-72
2022/02/18 10:55:49;;;;;;;19.90;5.53;;;23.60;99.90;;;;;;5073752;28;20040;-72
2022/02/18 10:58:24;;;;;;;23.20;6.53;;;23.60;99.90;;;;;;5075284;28;20100;-72
2022/02/18 11:01:11;;;;;;;23.90;6.40;;;23.50;99.90;;;;;;5073717;28;20141;-72
2022/02/18 11:03:44;;;;;;;19.80;5.43;;;23.40;99.90;;;;;;5074684;28;20029;-72
2022/02/18 11:06:13;;;;;;;22.42;5.78;;;23.50;99.90;;;;;;5075020;28;20027;-74
2022/02/18 11:08:53;;;;;;;20.98;5.63;;;23.40;99.90;;;;;;5073533;28;20406;-74
2022/02/18 11:11:22;;;;;;;19.23;5.10;;;23.50;99.90;;;;;;5074924;28;20377;-74
2022/02/18 11:13:51;;;;;;;22.48;6.30;;;23.40;99.90;;;;;;5074808;28;20020;-74
2022/02/18 11:16:20;;;;;;;25.17;5.75;;;23.40;99.90;;;;;;5073406;28;20501;-75
2022/02/18 11:18:47;;;;;;;22.33;5.63;;;23.30;99.90;;;;;;5074689;28;20522;-74
2022/02/18 11:21:17;;;;;;;21.05;5.47;;;23.40;99.90;;;;;;5074854;28;20078;-72
2022/02/18 11:23:45;;;;;;;16.73;4.43;;;23.40;99.90;;;;;;5073369;28;20072;-74
2022/02/18 11:26:16;;;;;;;17.65;5.03;;;23.30;99.90;;;;;;5073225;28;20328;-72
2022/02/18 11:28:44;;;;;;;15.35;4.90;;;23.30;99.90;;;;;;5074570;28;20091;-74
2022/02/18 11:31:17;;;;;;;16.30;4.80;;;23.30;99.90;;;;;;5073130;28;20021;-74
2022/02/18 11:34:04;;;;;;;19.92;5.22;;;23.30;99.90;;;;;;5074628;28;20033;-74
2022/02/18 11:36:58;;;;;;;17.30;5.10;;;23.30;99.90;;;;;;5073090;28;20021;-74
2022/02/18 11:39:32;;;;;;;20.80;4.97;;;23.30;99.90;;;;;;5074378;28;20025;-74
2022/02/18 11:42:20;;;;;;;19.73;4.50;;;23.30;99.90;;;;;;5074271;28;20024;-74
2022/02/18 11:44:47;;;;;;;20.05;4.45;;;23.20;99.90;;;;;;5072787;28;20040;-74
2022/02/18 11:47:22;;;;;;;13.98;4.35;;;23.20;99.90;;;;;;5073031;28;20029;-73
2022/02/18 11:49:52;;;;;;;12.30;3.85;;;23.10;99.90;;;;;;5074149;28;20382;-74
2022/02/18 11:52:22;;;;;;;17.42;4.88;;;23.10;99.90;;;;;;5074133;28;20019;-73
2022/02/18 11:54:50;;;;;;;20.40;5.20;;;23.10;99.90;;;;;;5072814;28;20489;-74
2022/02/18 11:57:19;;;;;;;19.67;4.43;;;23.10;99.90;;;;;;5073972;28;20021;-74
2022/02/18 12:00:03;;;;;;;18.80;4.75;;;23.10;99.90;;;;;;5073843;28;20029;-74
2022/02/18 12:02:41;;;;;;;18.70;3.90;;;23.00;99.90;;;;;;5072659;28;20029;-75
2022/02/18 12:05:14;;;;;;;20.92;4.15;;;23.00;99.90;;;;;;5072654;28;20086;-74
2022/02/18 12:07:55;;;;;;;15.93;3.70;;;23.00;99.90;;;;;;5073857;28;20017;-74
2022/02/18 12:10:27;;;;;;;12.68;3.33;;;23.00;99.90;;;;;;5073945;28;20429;-75
2022/02/18 12:13:08;;;;;;;18.42;3.78;;;23.00;99.90;;;;;;5073707;28;20040;-75
2022/02/18 12:15:35;;;;;;;;;;;23.00;99.90;;;;;;5073349;28;20482;-75
2022/02/18 12:18:11;;;;;;;14.70;3.63;;;23.00;99.90;;;;;;5073689;28;19908;-76
2022/02/18 12:20:41;;;;;;;12.05;3.60;;;23.00;99.90;;;;;;5073754;28;20099;-75
2022/02/18 12:23:27;;;;;;;17.38;3.22;;;23.00;99.90;;;;;;5073650;28;20497;-75
2022/02/18 12:26:25;;;;;;;17.15;4.47;;;23.10;99.90;;;;;;5072376;28;20448;-75
2022/02/18 12:29:11;;;;;;;16.38;3.78;;;23.10;99.90;;;;;;5073571;28;20039;-75
2022/02/18 12:31:55;;;;;;;18.55;4.18;;;23.10;99.90;;;;;;5073564;28;20013;-76
2022/02/18 12:34:30;;;;;;;13.65;4.47;;;23.10;99.90;;;;;;5073099;28;20016;-76
2022/02/18 12:36:58;;;;;;;15.48;4.03;;;23.00;99.90;;;;;;5073369;28;20021;-76
2022/02/18 12:39:44;;;;;;;15.52;3.85;;;23.00;99.90;;;;;;5072071;28;20436;-76
2022/02/18 12:42:19;;;;;;;19.50;4.13;;;23.00;99.90;;;;;;5073216;28;20081;-76
2022/02/18 12:44:53;;;;;;;14.85;3.90;;;23.00;99.90;;;;;;5073171;28;20036;-75
2022/02/18 12:47:22;;;;;;;16.73;3.83;;;22.90;99.90;;;;;;5071965;28;20032;-76
2022/02/18 12:49:52;;;;;;;18.20;4.18;;;23.00;99.90;;;;;;5073352;28;20020;-76
2022/02/18 12:52:20;;;;;;;13.98;3.67;;;22.90;99.90;;;;;;5071917;28;20123;-76
2022/02/18 12:54:53;;;;;;;17.80;4.03;;;22.90;99.90;;;;;;5073245;28;20398;-76
2022/02/18 12:57:27;;;;;;;15.98;3.38;;;22.90;99.90;;;;;;5071907;28;20516;-76
2022/02/18 12:59:56;;;;;;;17.33;3.78;;;22.90;99.90;;;;;;5071942;28;20029;-75